sensor_id;sensor_type;location;lat;lon;timestamp;pressure;altitude;pressure_sealevel;temperature;humidity
4590;BME280;2307;48.448;9.216;2023-06-14T00:02:00;94894.53;;;17.61;34.87
4590;BME280;2307;48.448;9.216;2023-06-14T00:04:26;94900.34;;;17.63;35.79
4590;BME280;2307;48.448;9.216;2023-06-14T00:06:53;94891.94;;;17.56;35.90
4590;BME280;2307;48.448;9.216;2023-06-14T00:09:21;94900.19;;;17.54;36.67
4590;BME280;2307;48.448;9.216;2023-06-14T00:11:49;94897.59;;;17.49;35.90
4590;BME280;2307;48.448;9.216;2023-06-14T00:14:16;94899.97;;;17.51;36.46
4590;BME280;2307;48.448;9.216;2023-06-14T00:16:42;94904.31;;;17.47;36.65
4590;BME280;2307;48.448;9.216;2023-06-14T00:19:08;94908.66;;;17.43;36.87
4590;BME280;2307;48.448;9.216;2023-06-14T00:21:35;94902.25;;;17.44;37.08
4590;BME280;2307;48.448;9.216;2023-06-14T00:24:02;94906.47;;;17.45;37.38
4590;BME280;2307;48.448;9.216;2023-06-14T00:26:28;94910.53;;;17.61;37.77
4590;BME280;2307;48.448;9.216;2023-06-14T00:28:56;94913.53;;;17.54;38.79
4590;BME280;2307;48.448;9.216;2023-06-14T00:31:22;94910.97;;;17.49;39.43
4590;BME280;2307;48.448;9.216;2023-06-14T00:33:49;94913.53;;;16.98;40.17
4590;BME280;2307;48.448;9.216;2023-06-14T00:36:15;94916.72;;;16.77;41.08
4590;BME280;2307;48.448;9.216;2023-06-14T00:38:41;94911.34;;;16.58;41.47
4590;BME280;2307;48.448;9.216;2023-06-14T00:41:08;94912.03;;;16.40;42.14
4590;BME280;2307;48.448;9.216;2023-06-14T00:43:34;94908.72;;;16.24;42.63
4590;BME280;2307;48.448;9.216;2023-06-14T00:46:02;94906.69;;;16.16;41.04
4590;BME280;2307;48.448;9.216;2023-06-14T00:48:28;94905.88;;;16.16;40.18
4590;BME280;2307;48.448;9.216;2023-06-14T00:50:56;94900.47;;;16.21;40.39
4590;BME280;2307;48.448;9.216;2023-06-14T00:53:23;94899.66;;;16.25;40.50
4590;BME280;2307;48.448;9.216;2023-06-14T00:55:50;94902.00;;;16.32;40.53
4590;BME280;2307;48.448;9.216;2023-06-14T00:58:16;94898.94;;;16.43;40.07
4590;BME280;2307;48.448;9.216;2023-06-14T01:00:43;94895.53;;;16.38;40.84
4590;BME280;2307;48.448;9.216;2023-06-14T01:03:10;94898.28;;;16.28;41.30
4590;BME280;2307;48.448;9.216;2023-06-14T01:05:37;94904.75;;;16.22;40.94
4590;BME280;2307;48.448;9.216;2023-06-14T01:08:06;94901.53;;;16.25;40.76
4590;BME280;2307;48.448;9.216;2023-06-14T01:10:44;94897.25;;;16.24;41.49
4590;BME280;2307;48.448;9.216;2023-06-14T01:13:15;94905.56;;;16.22;41.94
4590;BME280;2307;48.448;9.216;2023-06-14T01:15:45;94902.59;;;16.24;41.97
4590;BME280;2307;48.448;9.216;2023-06-14T01:18:14;94903.94;;;16.21;41.74
4590;BME280;2307;48.448;9.216;2023-06-14T01:20:43;94904.28;;;16.15;41.88
4590;BME280;2307;48.448;9.216;2023-06-14T01:23:13;94901.69;;;16.10;41.83
4590;BME280;2307;48.448;9.216;2023-06-14T01:25:40;94899.50;;;16.12;41.49
4590;BME280;2307;48.448;9.216;2023-06-14T01:28:10;94900.53;;;16.16;42.08
4590;BME280;2307;48.448;9.216;2023-06-14T01:30:38;94902.72;;;16.14;43.01
4590;BME280;2307;48.448;9.216;2023-06-14T01:33:07;94902.41;;;15.86;43.09
4590;BME280;2307;48.448;9.216;2023-06-14T01:35:34;94896.16;;;15.72;43.98
4590;BME280;2307;48.448;9.216;2023-06-14T01:38:01;94897.25;;;15.66;44.01
4590;BME280;2307;48.448;9.216;2023-06-14T01:40:30;94903.00;;;15.78;43.93
4590;BME280;2307;48.448;9.216;2023-06-14T01:42:57;94900.59;;;15.82;43.13
4590;BME280;2307;48.448;9.216;2023-06-14T01:45:24;94901.41;;;15.77;43.38
4590;BME280;2307;48.448;9.216;2023-06-14T01:47:52;94897.97;;;15.77;45.27
4590;BME280;2307;48.448;9.216;2023-06-14T01:50:18;94897.16;;;15.76;45.01
4590;BME280;2307;48.448;9.216;2023-06-14T01:52:45;94896.38;;;15.76;44.40
4590;BME280;2307;48.448;9.216;2023-06-14T01:55:11;94891.69;;;15.63;45.78
4590;BME280;2307;48.448;9.216;2023-06-14T01:57:39;94899.00;;;15.81;44.58
4590;BME280;2307;48.448;9.216;2023-06-14T02:00:06;94895.66;;;15.65;44.98
4590;BME280;2307;48.448;9.216;2023-06-14T02:02:37;94896.25;;;15.57;45.50
4590;BME280;2307;48.448;9.216;2023-06-14T02:05:04;94893.06;;;15.55;44.65
4590;BME280;2307;48.448;9.216;2023-06-14T02:07:30;94898.91;;;15.57;44.04
4590;BME280;2307;48.448;9.216;2023-06-14T02:09:57;94890.91;;;15.57;43.99
4590;BME280;2307;48.448;9.216;2023-06-14T02:12:23;94892.84;;;15.47;42.98
4590;BME280;2307;48.448;9.216;2023-06-14T02:14:51;94900.56;;;15.48;43.87
4590;BME280;2307;48.448;9.216;2023-06-14T02:17:17;94896.31;;;15.47;43.87
4590;BME280;2307;48.448;9.216;2023-06-14T02:19:44;94898.16;;;15.47;44.63
4590;BME280;2307;48.448;9.216;2023-06-14T02:22:10;94901.91;;;15.46;44.47
4590;BME280;2307;48.448;9.216;2023-06-14T02:24:36;94899.53;;;15.44;43.83
4590;BME280;2307;48.448;9.216;2023-06-14T02:27:03;94900.56;;;15.53;44.20
4590;BME280;2307;48.448;9.216;2023-06-14T02:29:29;94903.31;;;15.33;44.83
4590;BME280;2307;48.448;9.216;2023-06-14T02:31:57;94900.16;;;15.26;44.23
4590;BME280;2307;48.448;9.216;2023-06-14T02:34:23;94898.09;;;15.18;45.03
4590;BME280;2307;48.448;9.216;2023-06-14T02:36:49;94898.59;;;15.20;45.33
4590;BME280;2307;48.448;9.216;2023-06-14T02:39:17;94898.03;;;15.23;45.50
4590;BME280;2307;48.448;9.216;2023-06-14T02:41:45;94893.25;;;15.25;45.13
4590;BME280;2307;48.448;9.216;2023-06-14T02:44:12;94891.00;;;15.42;45.22
4590;BME280;2307;48.448;9.216;2023-06-14T02:46:39;94887.66;;;15.26;45.22
4590;BME280;2307;48.448;9.216;2023-06-14T02:49:07;94896.00;;;15.10;44.95
4590;BME280;2307;48.448;9.216;2023-06-14T02:51:33;94898.69;;;15.05;46.03
4590;BME280;2307;48.448;9.216;2023-06-14T02:54:00;94904.25;;;15.08;47.03
4590;BME280;2307;48.448;9.216;2023-06-14T02:56:26;94899.03;;;14.88;46.67
4590;BME280;2307;48.448;9.216;2023-06-14T02:58:53;94900.88;;;14.87;46.88
4590;BME280;2307;48.448;9.216;2023-06-14T03:01:19;94896.66;;;14.86;46.73
4590;BME280;2307;48.448;9.216;2023-06-14T03:03:46;94899.50;;;15.00;46.13
4590;BME280;2307;48.448;9.216;2023-06-14T03:06:14;94905.00;;;15.14;46.51
4590;BME280;2307;48.448;9.216;2023-06-14T03:08:41;94907.19;;;15.07;47.51
4590;BME280;2307;48.448;9.216;2023-06-14T03:11:09;94908.31;;;14.96;47.15
4590;BME280;2307;48.448;9.216;2023-06-14T03:13:35;94909.38;;;15.00;46.44
4590;BME280;2307;48.448;9.216;2023-06-14T03:16:02;94907.25;;;14.97;46.55
4590;BME280;2307;48.448;9.216;2023-06-14T03:18:29;94909.38;;;15.00;46.44
4590;BME280;2307;48.448;9.216;2023-06-14T03:20:55;94909.13;;;14.96;48.12
4590;BME280;2307;48.448;9.216;2023-06-14T03:23:24;94918.44;;;14.88;48.24
4590;BME280;2307;48.448;9.216;2023-06-14T03:25:51;94922.91;;;14.98;48.15
4590;BME280;2307;48.448;9.216;2023-06-14T03:28:17;94921.09;;;14.88;48.42
4590;BME280;2307;48.448;9.216;2023-06-14T03:30:43;94919.06;;;14.65;48.36
4590;BME280;2307;48.448;9.216;2023-06-14T03:33:10;94916.16;;;14.57;49.23
4590;BME280;2307;48.448;9.216;2023-06-14T03:35:36;94922.06;;;14.44;49.31
4590;BME280;2307;48.448;9.216;2023-06-14T03:38:03;94914.84;;;14.49;50.95
4590;BME280;2307;48.448;9.216;2023-06-14T03:40:31;94917.00;;;14.47;50.39
4590;BME280;2307;48.448;9.216;2023-06-14T03:42:57;94916.00;;;14.33;50.43
4590;BME280;2307;48.448;9.216;2023-06-14T03:45:24;94917.28;;;14.25;50.89
4590;BME280;2307;48.448;9.216;2023-06-14T03:47:50;94931.63;;;14.24;51.04
4590;BME280;2307;48.448;9.216;2023-06-14T03:50:17;94926.34;;;14.40;50.77
4590;BME280;2307;48.448;9.216;2023-06-14T03:52:44;94931.66;;;14.40;50.54
4590;BME280;2307;48.448;9.216;2023-06-14T03:55:11;94931.09;;;14.43;51.24
4590;BME280;2307;48.448;9.216;2023-06-14T03:57:39;94939.34;;;14.41;52.02
4590;BME280;2307;48.448;9.216;2023-06-14T04:00:06;94940.66;;;14.44;53.44
4590;BME280;2307;48.448;9.216;2023-06-14T04:02:33;94943.03;;;14.40;51.39
4590;BME280;2307;48.448;9.216;2023-06-14T04:05:01;94946.25;;;14.22;50.51
4590;BME280;2307;48.448;9.216;2023-06-14T04:07:27;94951.31;;;14.13;51.84
4590;BME280;2307;48.448;9.216;2023-06-14T04:09:54;94957.94;;;14.16;53.71
4590;BME280;2307;48.448;9.216;2023-06-14T04:12:21;94952.63;;;14.41;55.31
4590;BME280;2307;48.448;9.216;2023-06-14T04:14:49;94961.13;;;14.13;55.60
4590;BME280;2307;48.448;9.216;2023-06-14T04:17:16;94966.44;;;14.13;57.27
4590;BME280;2307;48.448;9.216;2023-06-14T04:19:42;94966.19;;;14.04;55.77
4590;BME280;2307;48.448;9.216;2023-06-14T04:22:08;94963.53;;;14.09;54.70
4590;BME280;2307;48.448;9.216;2023-06-14T04:24:36;94974.94;;;14.10;55.12
4590;BME280;2307;48.448;9.216;2023-06-14T04:27:02;94970.69;;;14.14;56.02
4590;BME280;2307;48.448;9.216;2023-06-14T04:29:29;94973.88;;;14.16;57.07
4590;BME280;2307;48.448;9.216;2023-06-14T04:31:57;94973.34;;;14.19;56.66
4590;BME280;2307;48.448;9.216;2023-06-14T04:34:25;94973.34;;;14.19;56.59
4590;BME280;2307;48.448;9.216;2023-06-14T04:36:54;94989.28;;;14.19;55.58
4590;BME280;2307;48.448;9.216;2023-06-14T04:39:21;94982.66;;;14.16;55.29
4590;BME280;2307;48.448;9.216;2023-06-14T04:41:47;94981.31;;;14.19;54.25
4590;BME280;2307;48.448;9.216;2023-06-14T04:44:16;94976.50;;;14.21;54.28
4590;BME280;2307;48.448;9.216;2023-06-14T04:46:43;94981.06;;;14.20;54.93
4590;BME280;2307;48.448;9.216;2023-06-14T04:49:12;94989.00;;;14.15;54.26
4590;BME280;2307;48.448;9.216;2023-06-14T04:51:40;94985.56;;;14.20;56.42
4590;BME280;2307;48.448;9.216;2023-06-14T04:54:07;94994.34;;;14.35;56.07
4590;BME280;2307;48.448;9.216;2023-06-14T04:56:35;94995.16;;;14.36;57.04
4590;BME280;2307;48.448;9.216;2023-06-14T04:59:02;94998.31;;;14.38;57.93
4590;BME280;2307;48.448;9.216;2023-06-14T05:01:34;94997.81;;;14.36;60.68
4590;BME280;2307;48.448;9.216;2023-06-14T05:04:02;94995.66;;;14.38;59.59
4590;BME280;2307;48.448;9.216;2023-06-14T05:06:30;95005.25;;;14.39;60.13
4590;BME280;2307;48.448;9.216;2023-06-14T05:08:56;95000.97;;;14.43;59.43
4590;BME280;2307;48.448;9.216;2023-06-14T05:13:54;95007.34;;;14.57;64.81
4590;BME280;2307;48.448;9.216;2023-06-14T05:16:20;94995.09;;;14.61;67.22
4590;BME280;2307;48.448;9.216;2023-06-14T05:18:48;94998.84;;;14.55;64.23
4590;BME280;2307;48.448;9.216;2023-06-14T05:21:15;94996.72;;;14.52;64.12
4590;BME280;2307;48.448;9.216;2023-06-14T05:23:44;94998.84;;;14.55;63.26
4590;BME280;2307;48.448;9.216;2023-06-14T05:26:10;94999.91;;;14.54;65.11
4590;BME280;2307;48.448;9.216;2023-06-14T05:28:37;95003.34;;;14.55;65.42
4590;BME280;2307;48.448;9.216;2023-06-14T05:31:03;95010.75;;;14.63;63.21
4590;BME280;2307;48.448;9.216;2023-06-14T05:33:30;95010.22;;;14.66;61.79
4590;BME280;2307;48.448;9.216;2023-06-14T05:35:56;95011.00;;;14.71;65.86
4590;BME280;2307;48.448;9.216;2023-06-14T05:38:22;95007.28;;;14.77;66.60
4590;BME280;2307;48.448;9.216;2023-06-14T05:40:50;95007.03;;;14.84;67.65
4590;BME280;2307;48.448;9.216;2023-06-14T05:43:16;95009.34;;;14.90;61.36
4590;BME280;2307;48.448;9.216;2023-06-14T05:45:43;95016.03;;;14.83;61.67
4590;BME280;2307;48.448;9.216;2023-06-14T05:48:09;95016.78;;;14.94;58.68
4590;BME280;2307;48.448;9.216;2023-06-14T05:50:35;95020.50;;;15.03;56.38
4590;BME280;2307;48.448;9.216;2023-06-14T05:53:02;95027.91;;;15.11;56.24
4590;BME280;2307;48.448;9.216;2023-06-14T05:55:28;95020.47;;;15.13;58.47
4590;BME280;2307;48.448;9.216;2023-06-14T05:57:56;95023.91;;;15.18;59.26
4590;BME280;2307;48.448;9.216;2023-06-14T06:00:22;95029.28;;;15.08;58.71
4590;BME280;2307;48.448;9.216;2023-06-14T06:02:49;95029.84;;;14.95;58.77
4590;BME280;2307;48.448;9.216;2023-06-14T06:05:15;95032.47;;;15.00;65.88
4590;BME280;2307;48.448;9.216;2023-06-14T06:07:42;95034.56;;;15.13;64.14
4590;BME280;2307;48.448;9.216;2023-06-14T06:10:09;95035.88;;;15.16;67.22
4590;BME280;2307;48.448;9.216;2023-06-14T06:12:36;95033.75;;;15.18;61.20
4590;BME280;2307;48.448;9.216;2023-06-14T06:15:04;95039.56;;;15.30;65.21
4590;BME280;2307;48.448;9.216;2023-06-14T06:17:31;95036.38;;;15.23;66.59
4590;BME280;2307;48.448;9.216;2023-06-14T06:19:57;95034.81;;;15.22;66.18
4590;BME280;2307;48.448;9.216;2023-06-14T06:22:23;95034.00;;;15.21;68.17
4590;BME280;2307;48.448;9.216;2023-06-14T06:24:50;95043.31;;;15.24;68.72
4590;BME280;2307;48.448;9.216;2023-06-14T06:27:16;95042.25;;;15.20;61.89
4590;BME280;2307;48.448;9.216;2023-06-14T06:29:44;95050.53;;;15.18;62.20
4590;BME280;2307;48.448;9.216;2023-06-14T06:32:11;95044.09;;;15.24;63.72
4590;BME280;2307;48.448;9.216;2023-06-14T06:34:38;95051.50;;;15.32;62.61
4590;BME280;2307;48.448;9.216;2023-06-14T06:37:05;95040.03;;;15.47;64.10
4590;BME280;2307;48.448;9.216;2023-06-14T06:39:31;95046.66;;;15.44;63.80
4590;BME280;2307;48.448;9.216;2023-06-14T06:41:57;95047.66;;;15.69;63.79
4590;BME280;2307;48.448;9.216;2023-06-14T06:44:24;95051.66;;;15.66;67.16
4590;BME280;2307;48.448;9.216;2023-06-14T06:46:50;95046.84;;;15.68;57.94
4590;BME280;2307;48.448;9.216;2023-06-14T06:49:18;95048.41;;;15.74;55.17
4590;BME280;2307;48.448;9.216;2023-06-14T06:51:57;95050.28;;;15.79;55.32
4590;BME280;2307;48.448;9.216;2023-06-14T06:54:25;95057.47;;;15.73;54.76
4590;BME280;2307;48.448;9.216;2023-06-14T06:56:51;95050.50;;;15.82;57.26
4590;BME280;2307;48.448;9.216;2023-06-14T06:59:18;95053.59;;;16.38;60.91
4590;BME280;2307;48.448;9.216;2023-06-14T07:01:44;95052.88;;;16.62;58.54
4590;BME280;2307;48.448;9.216;2023-06-14T07:04:10;95058.53;;;16.55;54.18
4590;BME280;2307;48.448;9.216;2023-06-14T07:06:38;95061.88;;;16.32;51.08
4590;BME280;2307;48.448;9.216;2023-06-14T07:09:04;95068.78;;;16.38;51.79
4590;BME280;2307;48.448;9.216;2023-06-14T07:11:33;95072.03;;;16.30;52.22
4590;BME280;2307;48.448;9.216;2023-06-14T07:13:59;95067.16;;;16.37;52.33
4590;BME280;2307;48.448;9.216;2023-06-14T07:16:26;95072.50;;;16.37;49.83
4590;BME280;2307;48.448;9.216;2023-06-14T07:18:52;95072.56;;;16.27;51.79
4590;BME280;2307;48.448;9.216;2023-06-14T07:21:18;95073.13;;;16.29;50.79
4590;BME280;2307;48.448;9.216;2023-06-14T07:23:46;95078.31;;;16.44;54.50
4590;BME280;2307;48.448;9.216;2023-06-14T07:26:12;95076.13;;;16.56;53.99
4590;BME280;2307;48.448;9.216;2023-06-14T07:28:39;95078.44;;;16.68;51.70
4590;BME280;2307;48.448;9.216;2023-06-14T07:31:05;95081.78;;;16.78;50.69
4590;BME280;2307;48.448;9.216;2023-06-14T07:33:32;95079.81;;;16.89;50.60
4590;BME280;2307;48.448;9.216;2023-06-14T07:35:59;95089.69;;;16.88;51.73
4590;BME280;2307;48.448;9.216;2023-06-14T07:38:25;95089.69;;;16.88;49.99
4590;BME280;2307;48.448;9.216;2023-06-14T07:40:53;95090.84;;;17.06;53.11
4590;BME280;2307;48.448;9.216;2023-06-14T07:43:19;95088.38;;;17.15;52.66
4590;BME280;2307;48.448;9.216;2023-06-14T07:45:46;95091.78;;;17.20;51.69
4590;BME280;2307;48.448;9.216;2023-06-14T07:48:12;95094.63;;;17.29;53.76
4590;BME280;2307;48.448;9.216;2023-06-14T07:50:39;95084.91;;;17.38;51.76
4590;BME280;2307;48.448;9.216;2023-06-14T07:53:06;95088.09;;;17.40;52.48
4590;BME280;2307;48.448;9.216;2023-06-14T07:55:32;95095.69;;;17.57;50.29
4590;BME280;2307;48.448;9.216;2023-06-14T07:58:03;95102.25;;;17.64;51.24
4590;BME280;2307;48.448;9.216;2023-06-14T08:00:29;95103.19;;;17.73;48.20
4590;BME280;2307;48.448;9.216;2023-06-14T08:02:56;95098.38;;;17.75;48.01
4590;BME280;2307;48.448;9.216;2023-06-14T08:05:24;95095.66;;;17.80;47.62
4590;BME280;2307;48.448;9.216;2023-06-14T08:07:51;95101.00;;;17.80;48.45
4590;BME280;2307;48.448;9.216;2023-06-14T08:10:18;95092.09;;;17.66;47.35
4590;BME280;2307;48.448;9.216;2023-06-14T08:12:45;95103.91;;;17.60;49.03
4590;BME280;2307;48.448;9.216;2023-06-14T08:15:12;95097.03;;;17.78;48.46
4590;BME280;2307;48.448;9.216;2023-06-14T08:17:39;95104.03;;;17.92;47.18
4590;BME280;2307;48.448;9.216;2023-06-14T08:20:06;95104.47;;;17.99;47.58
4590;BME280;2307;48.448;9.216;2023-06-14T08:22:32;95104.03;;;18.11;46.23
4590;BME280;2307;48.448;9.216;2023-06-14T08:25:00;95101.59;;;18.15;46.60
4590;BME280;2307;48.448;9.216;2023-06-14T08:27:26;95097.25;;;18.19;46.87
4590;BME280;2307;48.448;9.216;2023-06-14T08:29:53;95099.78;;;18.29;47.92
4590;BME280;2307;48.448;9.216;2023-06-14T08:32:21;95106.06;;;18.38;47.17
4590;BME280;2307;48.448;9.216;2023-06-14T08:34:48;95108.25;;;18.36;46.47
4590;BME280;2307;48.448;9.216;2023-06-14T08:37:14;95113.50;;;18.41;49.85
4590;BME280;2307;48.448;9.216;2023-06-14T08:39:41;95107.84;;;18.42;48.44
4590;BME280;2307;48.448;9.216;2023-06-14T08:42:09;95112.00;;;18.53;48.20
4590;BME280;2307;48.448;9.216;2023-06-14T08:44:36;95115.13;;;18.61;50.30
4590;BME280;2307;48.448;9.216;2023-06-14T08:47:02;95116.25;;;18.73;47.21
4590;BME280;2307;48.448;9.216;2023-06-14T08:49:31;95113.41;;;18.83;48.36
4590;BME280;2307;48.448;9.216;2023-06-14T08:51:59;95112.34;;;18.98;49.56
4590;BME280;2307;48.448;9.216;2023-06-14T08:54:26;95119.31;;;19.13;50.20
4590;BME280;2307;48.448;9.216;2023-06-14T08:56:55;95114.97;;;19.17;48.57
4590;BME280;2307;48.448;9.216;2023-06-14T08:59:22;95122.22;;;19.30;50.45
4590;BME280;2307;48.448;9.216;2023-06-14T09:01:49;95114.53;;;19.42;49.49
4590;BME280;2307;48.448;9.216;2023-06-14T09:04:17;95121.69;;;19.60;48.43
4590;BME280;2307;48.448;9.216;2023-06-14T09:06:45;95116.31;;;19.74;49.76
4590;BME280;2307;48.448;9.216;2023-06-14T09:09:17;95115.03;;;19.85;47.05
4590;BME280;2307;48.448;9.216;2023-06-14T09:11:44;95120.19;;;19.81;46.88
4590;BME280;2307;48.448;9.216;2023-06-14T09:14:10;95117.88;;;19.88;46.57
4590;BME280;2307;48.448;9.216;2023-06-14T09:16:36;95123.44;;;20.05;46.79
4590;BME280;2307;48.448;9.216;2023-06-14T09:19:03;95124.44;;;20.09;45.83
4590;BME280;2307;48.448;9.216;2023-06-14T09:21:29;95117.38;;;20.13;43.22
4590;BME280;2307;48.448;9.216;2023-06-14T09:24:02;95125.13;;;20.29;43.33
4590;BME280;2307;48.448;9.216;2023-06-14T09:26:29;95113.56;;;20.42;42.79
4590;BME280;2307;48.448;9.216;2023-06-14T09:28:56;95121.97;;;20.49;41.30
4590;BME280;2307;48.448;9.216;2023-06-14T09:31:22;95125.34;;;20.54;42.42
4590;BME280;2307;48.448;9.216;2023-06-14T09:33:49;95116.56;;;20.62;41.23
4590;BME280;2307;48.448;9.216;2023-06-14T09:36:16;95122.50;;;20.73;40.35
4590;BME280;2307;48.448;9.216;2023-06-14T09:38:46;95122.13;;;20.88;41.65
4590;BME280;2307;48.448;9.216;2023-06-14T09:41:19;95123.38;;;20.91;40.07
4590;BME280;2307;48.448;9.216;2023-06-14T09:43:46;95127.66;;;20.92;39.88
4590;BME280;2307;48.448;9.216;2023-06-14T09:46:13;95130.59;;;21.04;40.55
4590;BME280;2307;48.448;9.216;2023-06-14T09:48:39;95133.75;;;21.06;40.04
4590;BME280;2307;48.448;9.216;2023-06-14T09:51:07;95129.44;;;21.18;40.32
4590;BME280;2307;48.448;9.216;2023-06-14T09:53:35;95127.59;;;21.28;40.03
4590;BME280;2307;48.448;9.216;2023-06-14T09:56:03;95126.38;;;21.34;39.84
4590;BME280;2307;48.448;9.216;2023-06-14T09:58:32;95129.00;;;21.56;39.25
4590;BME280;2307;48.448;9.216;2023-06-14T10:01:00;95124.91;;;21.67;38.10
4590;BME280;2307;48.448;9.216;2023-06-14T10:03:28;95116.25;;;21.70;37.97
4590;BME280;2307;48.448;9.216;2023-06-14T10:05:55;95117.31;;;21.91;38.00
4590;BME280;2307;48.448;9.216;2023-06-14T10:08:23;95122.06;;;21.94;38.28
4590;BME280;2307;48.448;9.216;2023-06-14T10:10:51;95121.19;;;21.85;36.83
4590;BME280;2307;48.448;9.216;2023-06-14T10:13:18;95114.28;;;22.01;35.83
4590;BME280;2307;48.448;9.216;2023-06-14T10:15:50;95119.38;;;22.11;37.95
4590;BME280;2307;48.448;9.216;2023-06-14T10:18:19;95121.59;;;22.09;36.98
4590;BME280;2307;48.448;9.216;2023-06-14T10:20:51;95127.16;;;22.30;35.79
4590;BME280;2307;48.448;9.216;2023-06-14T10:23:21;95125.75;;;22.33;35.13
4590;BME280;2307;48.448;9.216;2023-06-14T10:25:49;95124.34;;;22.52;34.75
4590;BME280;2307;48.448;9.216;2023-06-14T10:28:16;95115.66;;;22.72;36.59
4590;BME280;2307;48.448;9.216;2023-06-14T10:31:03;95120.41;;;22.84;36.29
4590;BME280;2307;48.448;9.216;2023-06-14T10:33:30;95122.91;;;23.06;34.30
4590;BME280;2307;48.448;9.216;2023-06-14T10:36:09;95120.16;;;23.32;35.38
4590;BME280;2307;48.448;9.216;2023-06-14T10:38:36;95120.63;;;23.43;33.72
4590;BME280;2307;48.448;9.216;2023-06-14T10:41:03;95121.16;;;23.74;34.60
4590;BME280;2307;48.448;9.216;2023-06-14T10:43:30;95116.22;;;24.05;32.22
4590;BME280;2307;48.448;9.216;2023-06-14T10:46:17;95112.25;;;24.11;31.96
4590;BME280;2307;48.448;9.216;2023-06-14T10:48:46;95115.81;;;24.24;32.39
4590;BME280;2307;48.448;9.216;2023-06-14T10:51:19;95110.34;;;24.12;33.27
4590;BME280;2307;48.448;9.216;2023-06-14T10:53:46;95111.44;;;24.19;32.81
4590;BME280;2307;48.448;9.216;2023-06-14T10:56:23;95108.41;;;24.42;32.84
4590;BME280;2307;48.448;9.216;2023-06-14T10:58:51;95116.19;;;24.64;33.12
4590;BME280;2307;48.448;9.216;2023-06-14T11:01:19;95113.00;;;24.62;32.93
4590;BME280;2307;48.448;9.216;2023-06-14T11:03:50;95123.00;;;25.03;32.34
4590;BME280;2307;48.448;9.216;2023-06-14T11:06:17;95119.72;;;25.30;31.49
4590;BME280;2307;48.448;9.216;2023-06-14T11:11:33;95120.31;;;25.35;31.24
4590;BME280;2307;48.448;9.216;2023-06-14T11:14:00;95110.78;;;25.50;31.90
4590;BME280;2307;48.448;9.216;2023-06-14T11:16:29;95106.66;;;25.89;28.85
4590;BME280;2307;48.448;9.216;2023-06-14T11:18:57;95120.16;;;26.01;29.78
4590;BME280;2307;48.448;9.216;2023-06-14T11:21:24;95116.22;;;25.99;30.64
4590;BME280;2307;48.448;9.216;2023-06-14T11:23:56;95122.31;;;25.96;27.92
4590;BME280;2307;48.448;9.216;2023-06-14T11:26:25;95117.00;;;26.35;27.64
4590;BME280;2307;48.448;9.216;2023-06-14T11:28:54;95115.31;;;26.43;28.06
4590;BME280;2307;48.448;9.216;2023-06-14T11:31:21;95107.94;;;26.56;28.39
4590;BME280;2307;48.448;9.216;2023-06-14T11:33:50;95120.31;;;26.81;28.08
4590;BME280;2307;48.448;9.216;2023-06-14T11:36:17;95117.81;;;26.12;28.84
4590;BME280;2307;48.448;9.216;2023-06-14T11:38:43;95109.69;;;26.12;28.85
4590;BME280;2307;48.448;9.216;2023-06-14T11:41:10;95107.09;;;26.27;26.39
4590;BME280;2307;48.448;9.216;2023-06-14T11:43:36;95107.44;;;26.38;28.20
4590;BME280;2307;48.448;9.216;2023-06-14T11:48:54;95104.63;;;27.30;28.19
4590;BME280;2307;48.448;9.216;2023-06-14T11:51:20;95101.38;;;27.24;29.32
4590;BME280;2307;48.448;9.216;2023-06-14T11:53:47;95104.06;;;26.81;27.37
4590;BME280;2307;48.448;9.216;2023-06-14T11:56:13;95109.78;;;26.15;28.29
4590;BME280;2307;48.448;9.216;2023-06-14T11:58:40;95107.19;;;26.43;26.89
4590;BME280;2307;48.448;9.216;2023-06-14T12:01:09;95108.47;;;26.21;28.54
4590;BME280;2307;48.448;9.216;2023-06-14T12:03:35;95108.88;;;26.35;28.87
4590;BME280;2307;48.448;9.216;2023-06-14T12:06:05;95112.41;;;26.76;28.24
4590;BME280;2307;48.448;9.216;2023-06-14T12:08:35;95115.06;;;27.43;28.10
4590;BME280;2307;48.448;9.216;2023-06-14T12:11:04;95110.81;;;27.58;27.01
4590;BME280;2307;48.448;9.216;2023-06-14T12:13:30;95109.59;;;27.28;27.70
4590;BME280;2307;48.448;9.216;2023-06-14T12:15:56;95108.75;;;27.39;27.25
4590;BME280;2307;48.448;9.216;2023-06-14T12:18:31;95101.66;;;27.35;28.63
4590;BME280;2307;48.448;9.216;2023-06-14T12:20:58;95099.88;;;27.86;26.82
4590;BME280;2307;48.448;9.216;2023-06-14T12:23:29;95104.16;;;28.53;25.46
4590;BME280;2307;48.448;9.216;2023-06-14T12:26:04;95108.19;;;28.24;26.76
4590;BME280;2307;48.448;9.216;2023-06-14T12:28:31;95103.56;;;27.78;27.27
4590;BME280;2307;48.448;9.216;2023-06-14T12:30:58;95101.53;;;27.59;26.70
4590;BME280;2307;48.448;9.216;2023-06-14T12:33:24;95101.78;;;28.01;27.83
4590;BME280;2307;48.448;9.216;2023-06-14T12:35:50;95100.38;;;28.23;26.76
4590;BME280;2307;48.448;9.216;2023-06-14T12:38:17;95104.13;;;28.69;24.31
4590;BME280;2307;48.448;9.216;2023-06-14T12:40:45;95101.66;;;28.79;25.92
4590;BME280;2307;48.448;9.216;2023-06-14T12:43:12;95104.16;;;28.88;24.60
4590;BME280;2307;48.448;9.216;2023-06-14T12:45:38;95111.59;;;28.91;25.15
4590;BME280;2307;48.448;9.216;2023-06-14T12:48:04;95116.72;;;29.15;23.75
4590;BME280;2307;48.448;9.216;2023-06-14T12:50:31;95107.03;;;29.37;24.81
4590;BME280;2307;48.448;9.216;2023-06-14T12:52:57;95105.44;;;29.32;25.71
4590;BME280;2307;48.448;9.216;2023-06-14T12:55:24;95115.78;;;29.46;24.66
4590;BME280;2307;48.448;9.216;2023-06-14T12:57:51;95121.53;;;29.64;25.38
4590;BME280;2307;48.448;9.216;2023-06-14T13:00:18;95119.63;;;29.87;25.98
4590;BME280;2307;48.448;9.216;2023-06-14T13:02:46;95114.00;;;28.96;23.64
4590;BME280;2307;48.448;9.216;2023-06-14T13:05:13;95115.72;;;29.42;25.49
4590;BME280;2307;48.448;9.216;2023-06-14T13:07:39;95112.50;;;29.60;25.34
4590;BME280;2307;48.448;9.216;2023-06-14T13:10:06;95123.00;;;29.58;25.09
4590;BME280;2307;48.448;9.216;2023-06-14T13:12:33;95110.38;;;29.49;25.42
4590;BME280;2307;48.448;9.216;2023-06-14T13:17:31;95108.72;;;29.64;25.54
4590;BME280;2307;48.448;9.216;2023-06-14T13:19:58;95103.22;;;30.06;24.73
4590;BME280;2307;48.448;9.216;2023-06-14T13:22:24;95119.97;;;29.63;24.88
4590;BME280;2307;48.448;9.216;2023-06-14T13:24:51;95114.72;;;29.12;24.25
4590;BME280;2307;48.448;9.216;2023-06-14T13:27:17;95108.94;;;29.14;24.05
4590;BME280;2307;48.448;9.216;2023-06-14T13:29:44;95109.75;;;29.18;25.32
4590;BME280;2307;48.448;9.216;2023-06-14T13:32:11;95111.09;;;29.05;25.32
4590;BME280;2307;48.448;9.216;2023-06-14T13:34:40;95116.56;;;29.08;26.32